createdAt,value
2022-08-30T00:01:07.590Z,2.92
2022-08-30T00:03:45.678Z,3.60
2022-08-30T00:06:15.107Z,4.70
2022-08-30T00:08:43.066Z,4.38
2022-08-30T00:11:13.283Z,4.50
2022-08-30T00:13:42.377Z,2.90
2022-08-30T00:16:10.142Z,3.80
2022-08-30T00:18:37.053Z,3.92
2022-08-30T00:21:05.725Z,5.38
2022-08-30T00:23:33.129Z,4.07
2022-08-30T00:26:00.480Z,4.75
2022-08-30T00:28:27.471Z,4.28
2022-08-30T00:30:54.924Z,3.20
2022-08-30T00:33:22.920Z,4.75
2022-08-30T00:35:50.417Z,4.78
2022-08-30T00:38:17.339Z,3.67
2022-08-30T00:40:45.275Z,4.18
2022-08-30T00:43:16.532Z,4.15
2022-08-30T00:45:47.161Z,5.20
2022-08-30T00:48:14.101Z,3.58
2022-08-30T00:50:46.677Z,3.25
2022-08-30T00:53:20.527Z,4.43
2022-08-30T00:55:49.024Z,4.60
2022-08-30T00:58:21.802Z,3.92
2022-08-30T01:00:55.135Z,4.03
2022-08-30T01:03:22.677Z,3.90
2022-08-30T01:05:51.593Z,4.38
2022-08-30T01:08:22.346Z,3.10
2022-08-30T01:10:51.509Z,4.93
2022-08-30T01:13:19.938Z,4.45
2022-08-30T01:15:50.666Z,4.43
2022-08-30T01:18:18.907Z,3.90
2022-08-30T01:21:22.700Z,4.55
2022-08-30T01:23:53.762Z,5.50
2022-08-30T01:26:22.017Z,4.05
2022-08-30T01:28:55.806Z,5.18
2022-08-30T01:31:23.464Z,3.45
2022-08-30T01:33:51.096Z,5.07
2022-08-30T01:36:20.408Z,5.70
2022-08-30T01:38:57.132Z,4.50
2022-08-30T01:41:25.725Z,5.68
2022-08-30T01:43:55.112Z,4.80
2022-08-30T01:46:24.398Z,6.13
2022-08-30T01:48:54.276Z,6.05
2022-08-30T01:51:24.094Z,2.85
2022-08-30T01:53:51.426Z,4.80
2022-08-30T01:56:19.192Z,6.30
2022-08-30T01:58:46.415Z,5.40
2022-08-30T02:01:15.353Z,4.75
2022-08-30T02:03:44.804Z,5.38
2022-08-30T02:08:41.590Z,7.10
2022-08-30T02:11:09.537Z,5.38
2022-08-30T02:13:37.788Z,5.10
2022-08-30T02:16:06.146Z,5.13
2022-08-30T02:18:34.711Z,3.55
2022-08-30T02:21:01.780Z,6.00
2022-08-30T02:23:28.816Z,7.28
2022-08-30T02:25:56.086Z,7.15
2022-08-30T02:28:23.103Z,6.47
2022-08-30T02:30:52.671Z,6.88
2022-08-30T02:33:20.679Z,5.35
2022-08-30T02:35:47.581Z,6.10
2022-08-30T02:38:14.616Z,6.85
2022-08-30T02:40:42.047Z,7.30
2022-08-30T02:43:09.077Z,7.18
2022-08-30T02:45:36.014Z,6.55
2022-08-30T02:48:03.653Z,6.10
2022-08-30T02:50:31.213Z,5.88
2022-08-30T02:52:58.079Z,5.07
2022-08-30T02:55:25.362Z,7.50
2022-08-30T02:57:52.249Z,7.28
2022-08-30T03:00:20.800Z,8.10
2022-08-30T03:02:48.104Z,7.82
2022-08-30T03:05:16.742Z,6.72
2022-08-30T03:07:45.774Z,7.97
2022-08-30T03:10:14.102Z,7.35
2022-08-30T03:12:41.878Z,6.68
2022-08-30T03:15:13.273Z,6.40
2022-08-30T03:17:40.956Z,6.95
2022-08-30T03:20:09.729Z,8.45
2022-08-30T03:22:36.788Z,6.47
2022-08-30T03:25:04.638Z,8.57
2022-08-30T03:27:32.357Z,6.70
2022-08-30T03:29:59.210Z,6.95
2022-08-30T03:32:26.208Z,8.10
2022-08-30T03:34:53.223Z,8.18
2022-08-30T03:37:27.262Z,5.00
2022-08-30T03:39:57.582Z,6.07
2022-08-30T03:42:24.903Z,6.47
2022-08-30T03:44:52.116Z,7.70
2022-08-30T03:47:19.165Z,8.38
2022-08-30T03:49:46.689Z,8.38
2022-08-30T03:52:13.659Z,7.43
2022-08-30T03:54:40.536Z,8.70
2022-08-30T03:57:07.464Z,4.43
2022-08-30T03:59:34.327Z,7.45
2022-08-30T04:02:01.419Z,6.95
2022-08-30T04:04:28.640Z,6.68
2022-08-30T04:06:55.516Z,8.23
2022-08-30T04:09:22.426Z,6.10
2022-08-30T04:11:49.421Z,8.80
2022-08-30T04:14:16.518Z,7.57
2022-08-30T04:16:43.674Z,8.25
2022-08-30T04:19:10.807Z,7.22
2022-08-30T04:21:43.052Z,8.40
2022-08-30T04:24:11.178Z,5.90
2022-08-30T04:26:38.110Z,9.73
2022-08-30T04:29:05.279Z,5.38
2022-08-30T04:31:32.543Z,8.75
2022-08-30T04:33:59.675Z,6.60
2022-08-30T04:36:26.692Z,6.22
2022-08-30T04:38:53.529Z,6.53
2022-08-30T04:41:24.384Z,8.15
2022-08-30T04:43:51.377Z,7.68
2022-08-30T04:46:19.457Z,7.97
2022-08-30T04:48:47.138Z,4.38
2022-08-30T04:51:17.188Z,7.32
2022-08-30T04:53:45.159Z,6.00
2022-08-30T04:56:19.573Z,7.18
2022-08-30T04:58:48.675Z,6.55
2022-08-30T05:01:23.767Z,8.23
2022-08-30T05:03:52.230Z,5.22
2022-08-30T05:06:20.021Z,10.75
2022-08-30T05:08:47.641Z,8.20
2022-08-30T05:11:16.566Z,9.82
2022-08-30T05:13:44.320Z,9.23
2022-08-30T05:16:13.411Z,7.93
2022-08-30T05:18:40.481Z,7.40
2022-08-30T05:21:11.165Z,7.20
2022-08-30T05:23:39.574Z,7.70
2022-08-30T05:26:08.686Z,9.13
2022-08-30T05:28:36.652Z,8.38
2022-08-30T05:31:14.033Z,6.28
2022-08-30T05:33:41.922Z,6.25
2022-08-30T05:36:09.902Z,4.55
2022-08-30T05:38:36.813Z,6.35
2022-08-30T05:41:08.349Z,7.43
2022-08-30T05:43:38.580Z,6.50
2022-08-30T05:46:12.560Z,7.15
2022-08-30T05:48:40.525Z,2.97
2022-08-30T05:51:17.570Z,5.53
2022-08-30T05:53:45.798Z,6.93
2022-08-30T05:56:14.595Z,5.45
2022-08-30T05:58:42.329Z,6.40
2022-08-30T06:01:19.670Z,6.90
2022-08-30T06:03:46.497Z,4.50
2022-08-30T06:06:13.407Z,6.68
2022-08-30T06:08:40.312Z,6.10
2022-08-30T06:11:07.101Z,4.82
2022-08-30T06:13:34.517Z,2.35
2022-08-30T06:16:01.366Z,5.00
2022-08-30T06:18:29.074Z,3.50
2022-08-30T06:20:55.875Z,5.40
2022-08-30T06:23:22.998Z,3.97
2022-08-30T06:25:49.958Z,6.10
2022-08-30T06:28:17.307Z,6.63
2022-08-30T06:30:44.260Z,5.63
2022-08-30T06:33:11.770Z,4.60
2022-08-30T06:35:56.795Z,4.47
2022-08-30T06:38:26.833Z,6.63
2022-08-30T06:40:53.623Z,6.43
2022-08-30T06:43:20.889Z,4.13
2022-08-30T06:45:48.093Z,4.60
2022-08-30T06:48:15.014Z,4.90
2022-08-30T06:50:42.467Z,4.63
2022-08-30T06:53:09.975Z,3.78
2022-08-30T06:55:37.383Z,5.15
2022-08-30T06:58:04.918Z,4.22
2022-08-30T07:00:32.018Z,5.00
2022-08-30T07:02:59.274Z,2.67
2022-08-30T07:05:26.206Z,3.28
2022-08-30T07:07:55.838Z,3.65
2022-08-30T07:10:22.781Z,3.95
2022-08-30T07:12:52.380Z,3.60
2022-08-30T07:15:23.177Z,2.50
2022-08-30T07:18:08.718Z,2.30
2022-08-30T07:20:40.568Z,2.03
2022-08-30T07:23:08.884Z,3.28
2022-08-30T07:25:40.774Z,1.95
2022-08-30T07:28:08.831Z,1.95
2022-08-30T07:30:36.356Z,2.78
2022-08-30T07:33:03.791Z,3.05
2022-08-30T07:35:31.585Z,3.20
2022-08-30T07:37:59.065Z,3.05
2022-08-30T07:40:26.843Z,2.63
2022-08-30T07:42:53.950Z,2.35
2022-08-30T07:45:21.285Z,2.60
2022-08-30T07:47:48.164Z,2.97
2022-08-30T07:50:15.050Z,2.00
2022-08-30T07:52:41.988Z,2.10
2022-08-30T07:55:10.075Z,2.13
2022-08-30T07:57:37.210Z,1.85
2022-08-30T08:00:06.414Z,2.15
2022-08-30T08:02:40.798Z,1.80
2022-08-30T08:05:10.300Z,1.90
2022-08-30T08:07:39.851Z,1.83
2022-08-30T08:10:07.214Z,2.83
2022-08-30T08:12:34.894Z,2.70
2022-08-30T08:15:04.212Z,1.92
2022-08-30T08:17:35.190Z,2.03
2022-08-30T08:20:02.686Z,2.30
2022-08-30T08:22:29.504Z,2.03
2022-08-30T08:24:56.604Z,2.20
2022-08-30T08:27:24.744Z,2.22
2022-08-30T08:29:51.680Z,2.00
2022-08-30T08:32:18.540Z,2.22
2022-08-30T08:34:45.352Z,1.80
2022-08-30T08:37:12.206Z,1.75
2022-08-30T08:39:39.071Z,2.22
2022-08-30T08:42:11.641Z,1.60
2022-08-30T08:45:00.247Z,1.77
2022-08-30T08:47:40.034Z,1.55
2022-08-30T08:50:20.491Z,1.88
2022-08-30T08:53:36.180Z,1.60
2022-08-30T08:56:12.531Z,1.83
2022-08-30T08:58:52.299Z,1.70
2022-08-30T09:01:22.694Z,1.40
2022-08-30T09:03:50.428Z,1.70
2022-08-30T09:06:49.179Z,1.83
2022-08-30T09:09:20.570Z,1.70
2022-08-30T09:11:48.213Z,1.70
2022-08-30T09:14:20.710Z,1.50
2022-08-30T09:16:57.116Z,1.67
2022-08-30T09:19:40.604Z,2.08
2022-08-30T09:22:46.904Z,1.67
2022-08-30T09:27:52.065Z,2.17
2022-08-30T09:30:21.371Z,1.88
2022-08-30T09:33:07.702Z,1.40
2022-08-30T09:35:37.521Z,1.80
2022-08-30T09:38:10.907Z,1.85
2022-08-30T09:40:43.138Z,1.50
2022-08-30T09:43:32.879Z,1.80
2022-08-30T09:46:02.848Z,1.70
2022-08-30T09:48:34.292Z,1.98
2022-08-30T09:51:11.157Z,1.73
2022-08-30T09:54:17.495Z,1.70
2022-08-30T09:56:52.080Z,1.50
2022-08-30T09:59:49.005Z,4.25
2022-08-30T10:02:55.230Z,1.80
2022-08-30T10:05:35.309Z,1.73
2022-08-30T10:08:42.422Z,3.00
2022-08-30T10:11:22.093Z,1.75
2022-08-30T10:14:25.078Z,2.10
2022-08-30T10:17:06.091Z,1.60
2022-08-30T10:20:03.200Z,1.63
2022-08-30T10:22:58.648Z,1.80
2022-08-30T10:25:40.021Z,2.10
2022-08-30T10:28:35.186Z,1.30
2022-08-30T10:31:14.723Z,1.40
2022-08-30T10:33:50.967Z,1.50
2022-08-30T10:36:31.151Z,1.50
2022-08-30T10:38:59.408Z,1.73
2022-08-30T10:44:06.628Z,1.70
2022-08-30T10:46:47.956Z,1.42
2022-08-30T10:49:19.705Z,1.80
2022-08-30T10:52:10.041Z,1.40
2022-08-30T10:55:23.674Z,1.65
2022-08-30T10:57:51.827Z,1.80
2022-08-30T11:00:31.754Z,1.70
2022-08-30T11:03:26.759Z,1.70
2022-08-30T11:06:02.278Z,2.05
2022-08-30T11:08:53.648Z,1.67
2022-08-30T11:11:45.915Z,1.98
2022-08-30T11:14:17.558Z,1.55
2022-08-30T11:16:48.469Z,1.80
2022-08-30T11:19:15.312Z,1.70
2022-08-30T11:21:44.195Z,1.70
2022-08-30T11:26:54.711Z,1.50
2022-08-30T11:29:43.909Z,1.80
2022-08-30T11:32:14.443Z,1.90
2022-08-30T11:34:47.433Z,1.95
2022-08-30T11:37:41.200Z,1.83
2022-08-30T11:40:24.590Z,1.77
2022-08-30T11:42:55.338Z,2.03
2022-08-30T11:45:26.756Z,2.10
2022-08-30T11:47:59.886Z,1.92
2022-08-30T11:50:30.422Z,2.58
2022-08-30T11:53:16.126Z,2.50
2022-08-30T11:56:11.968Z,1.65
2022-08-30T11:59:02.678Z,1.95
2022-08-30T12:01:49.884Z,2.00
2022-08-30T12:04:19.549Z,2.08
2022-08-30T12:06:52.401Z,1.70
2022-08-30T12:09:25.039Z,1.65
2022-08-30T12:12:28.800Z,2.15
2022-08-30T12:14:57.607Z,1.83
2022-08-30T12:23:21.277Z,1.73
2022-08-30T12:26:08.913Z,1.95
2022-08-30T12:28:38.567Z,1.85
2022-08-30T12:31:22.075Z,1.60
2022-08-30T12:34:01.484Z,1.90
2022-08-30T12:36:40.073Z,1.70
2022-08-30T12:39:21.064Z,1.77
2022-08-30T12:41:50.601Z,2.10
2022-08-30T12:44:27.884Z,1.38
2022-08-30T12:47:02.509Z,1.75
2022-08-30T12:52:17.420Z,1.55
2022-08-30T12:54:45.382Z,1.85
2022-08-30T12:57:32.423Z,1.60
2022-08-30T13:00:02.410Z,1.50
2022-08-30T13:02:48.240Z,1.83
2022-08-30T13:05:34.473Z,1.90
2022-08-30T13:08:27.493Z,1.88
2022-08-30T13:10:59.677Z,2.10
2022-08-30T13:13:31.910Z,1.40
2022-08-30T13:16:29.390Z,1.80
2022-08-30T13:19:22.571Z,1.80
2022-08-30T13:21:54.537Z,2.00
2022-08-30T13:24:25.203Z,2.00
2022-08-30T13:26:55.548Z,1.70
2022-08-30T13:29:26.333Z,1.80
2022-08-30T13:31:53.729Z,2.10
2022-08-30T13:34:22.561Z,2.22
2022-08-30T13:39:18.130Z,1.65
2022-08-30T13:41:48.957Z,1.95
2022-08-30T13:44:16.265Z,2.08
2022-08-30T13:46:53.981Z,1.58
2022-08-30T13:49:45.463Z,2.30
2022-08-30T13:52:20.833Z,1.88
2022-08-30T13:54:56.575Z,1.80
2022-08-30T14:00:19.123Z,1.92
2022-08-30T14:02:54.153Z,1.95
2022-08-30T14:05:48.162Z,1.90
2022-08-30T14:11:00.397Z,2.35
2022-08-30T14:13:29.302Z,2.00
2022-08-30T14:18:47.258Z,2.00
2022-08-30T14:21:14.209Z,2.00
2022-08-30T14:23:41.742Z,1.95
2022-08-30T14:26:21.004Z,2.20
2022-08-30T14:28:51.460Z,1.55
2022-08-30T14:31:20.175Z,1.70
2022-08-30T14:33:47.744Z,2.10
2022-08-30T14:36:15.848Z,1.98
2022-08-30T14:38:44.918Z,2.00
2022-08-30T14:41:12.171Z,1.92
2022-08-30T14:43:42.796Z,2.15
2022-08-30T14:46:10.880Z,2.08
2022-08-30T14:48:38.876Z,2.00
2022-08-30T14:51:14.114Z,2.15
2022-08-30T14:53:41.087Z,2.10
2022-08-30T14:56:13.843Z,2.10
2022-08-30T14:58:40.674Z,2.00
2022-08-30T15:01:09.765Z,2.00
2022-08-30T15:03:38.705Z,2.40
2022-08-30T15:08:34.330Z,2.90
2022-08-30T15:11:02.171Z,2.30
2022-08-30T15:13:28.980Z,2.67
2022-08-30T15:15:56.942Z,2.20
2022-08-30T15:18:24.534Z,1.92
2022-08-30T15:20:51.653Z,2.30
2022-08-30T15:23:19.437Z,2.63
2022-08-30T15:25:51.680Z,1.75
2022-08-30T15:28:19.472Z,2.45
2022-08-30T15:30:46.999Z,2.50
2022-08-30T15:33:14.758Z,2.47
2022-08-30T15:35:41.851Z,2.53
2022-08-30T15:38:09.089Z,2.13
2022-08-30T15:40:39.407Z,1.63
2022-08-30T15:43:06.686Z,2.22
2022-08-30T15:45:33.668Z,2.13
2022-08-30T15:48:01.377Z,1.92
2022-08-30T15:50:29.346Z,2.25
2022-08-30T15:52:56.787Z,2.20
2022-08-30T15:55:23.749Z,1.70
2022-08-30T15:57:52.035Z,2.15
2022-08-30T16:00:19.570Z,1.65
2022-08-30T16:02:49.246Z,2.20
2022-08-30T16:05:17.792Z,1.90
2022-08-30T16:07:46.800Z,2.00
2022-08-30T16:10:15.991Z,2.05
2022-08-30T16:12:42.858Z,2.30
2022-08-30T16:15:10.380Z,2.20
2022-08-30T16:17:38.313Z,1.90
2022-08-30T16:20:07.412Z,1.65
2022-08-30T16:22:35.429Z,2.38
2022-08-30T16:25:04.775Z,1.75
2022-08-30T16:27:34.309Z,1.98
2022-08-30T16:30:01.751Z,1.88
2022-08-30T16:32:28.731Z,2.00
2022-08-30T16:34:55.701Z,1.77
2022-08-30T16:37:22.637Z,1.83
2022-08-30T16:39:49.626Z,1.77
2022-08-30T16:42:20.808Z,1.80
2022-08-30T16:44:49.769Z,1.70
2022-08-30T16:47:17.262Z,1.80
2022-08-30T16:49:44.291Z,1.90
2022-08-30T16:52:14.500Z,2.00
2022-08-30T16:54:41.521Z,2.00
2022-08-30T16:57:08.413Z,1.77
2022-08-30T16:59:37.228Z,2.00
2022-08-30T17:02:04.182Z,1.60
2022-08-30T17:04:31.449Z,1.80
2022-08-30T17:06:58.773Z,1.50
2022-08-30T17:09:25.721Z,1.65
2022-08-30T17:11:53.057Z,1.92
2022-08-30T17:14:28.021Z,1.70
2022-08-30T17:16:58.439Z,1.60
2022-08-30T17:19:28.601Z,2.00
2022-08-30T17:21:56.817Z,1.90
2022-08-30T17:24:25.091Z,1.90
2022-08-30T17:26:52.513Z,1.80
2022-08-30T17:29:19.890Z,1.80
2022-08-30T17:31:51.406Z,1.70
2022-08-30T17:34:22.005Z,2.10
2022-08-30T17:36:51.299Z,1.77
2022-08-30T17:41:50.016Z,1.42
2022-08-30T17:44:19.327Z,1.52
2022-08-30T17:46:46.711Z,1.40
2022-08-30T17:49:14.082Z,1.45
2022-08-30T17:51:42.976Z,1.77
2022-08-30T17:54:12.975Z,1.45
2022-08-30T17:56:41.181Z,1.90
2022-08-30T17:59:11.848Z,1.33
2022-08-30T18:01:45.849Z,1.65
2022-08-30T18:04:15.221Z,1.73
2022-08-30T18:06:47.269Z,2.00
2022-08-30T18:09:14.291Z,2.10
2022-08-30T18:11:41.451Z,1.70
2022-08-30T18:14:11.430Z,1.92
2022-08-30T18:16:53.380Z,1.90
2022-08-30T18:19:24.384Z,1.80
2022-08-30T18:21:53.036Z,1.70
2022-08-30T18:24:21.422Z,1.65
2022-08-30T18:26:52.100Z,1.92
2022-08-30T18:29:29.312Z,1.60
2022-08-30T18:32:02.870Z,2.00
2022-08-30T18:34:31.792Z,1.90
2022-08-30T18:37:00.363Z,1.83
2022-08-30T18:39:34.512Z,1.63
2022-08-30T18:42:08.834Z,2.00
2022-08-30T18:44:38.679Z,1.85
2022-08-30T18:47:11.106Z,1.90
2022-08-30T18:49:38.339Z,1.75
2022-08-30T18:52:08.345Z,1.92
2022-08-30T18:54:41.720Z,1.80
2022-08-30T18:57:12.070Z,1.70
2022-08-30T18:59:41.921Z,1.67
2022-08-30T19:02:16.378Z,2.00
2022-08-30T19:04:48.018Z,2.00
2022-08-30T19:07:20.772Z,2.13
2022-08-30T19:09:49.246Z,1.92
2022-08-30T19:12:19.024Z,1.67
2022-08-30T19:14:49.974Z,1.85
2022-08-30T19:17:18.239Z,1.90
2022-08-30T19:19:49.282Z,1.75
2022-08-30T19:22:24.028Z,1.73
2022-08-30T19:25:00.464Z,2.00
2022-08-30T19:27:39.844Z,1.63
2022-08-30T19:30:29.670Z,2.10
2022-08-30T19:32:57.793Z,2.13
2022-08-30T19:35:25.956Z,1.88
2022-08-30T19:37:55.927Z,2.10
2022-08-30T19:40:26.313Z,2.20
2022-08-30T19:42:54.445Z,2.42
2022-08-30T19:45:22.951Z,2.30
2022-08-30T19:47:53.468Z,2.33
2022-08-30T19:50:21.961Z,2.38
2022-08-30T19:52:54.170Z,2.20
2022-08-30T19:55:28.424Z,2.13
2022-08-30T19:57:57.955Z,2.10
2022-08-30T20:00:25.219Z,2.40
2022-08-30T20:02:54.776Z,2.20
2022-08-30T20:05:22.226Z,1.95
2022-08-30T20:07:54.243Z,2.10
2022-08-30T20:10:26.176Z,1.95
2022-08-30T20:12:56.390Z,2.20
2022-08-30T20:15:23.718Z,2.45
2022-08-30T20:18:14.224Z,2.33
2022-08-30T20:20:49.637Z,2.25
2022-08-30T20:23:19.729Z,1.98
2022-08-30T20:25:53.003Z,2.25
2022-08-30T20:28:21.099Z,1.95
2022-08-30T20:30:51.812Z,2.40
2022-08-30T20:33:22.200Z,2.30
2022-08-30T20:35:51.647Z,2.42
2022-08-30T20:38:23.780Z,2.53
2022-08-30T20:40:58.604Z,2.70
2022-08-30T20:43:28.115Z,2.25
2022-08-30T20:45:59.099Z,2.47
2022-08-30T20:48:28.857Z,2.45
2022-08-30T20:50:56.477Z,2.50
2022-08-30T20:53:23.566Z,2.17
2022-08-30T20:55:50.491Z,2.50
2022-08-30T20:58:17.491Z,2.17
2022-08-30T21:00:50.102Z,2.60
2022-08-30T21:03:26.092Z,2.60
2022-08-30T21:05:56.324Z,2.40
2022-08-30T21:08:23.316Z,2.50
2022-08-30T21:10:50.635Z,2.38
2022-08-30T21:13:18.312Z,2.60
2022-08-30T21:15:46.235Z,2.40
2022-08-30T21:18:14.483Z,2.58
2022-08-30T21:20:41.902Z,2.95
2022-08-30T21:23:09.392Z,2.88
2022-08-30T21:25:42.181Z,3.53
2022-08-30T21:28:09.151Z,2.50
2022-08-30T21:30:37.230Z,2.30
2022-08-30T21:33:05.880Z,2.42
2022-08-30T21:35:51.281Z,2.22
2022-08-30T21:38:20.106Z,2.47
2022-08-30T21:40:50.294Z,2.90
2022-08-30T21:43:17.568Z,3.00
2022-08-30T21:45:45.552Z,2.22
2022-08-30T21:48:13.753Z,3.10
2022-08-30T21:50:44.488Z,2.28
2022-08-30T21:53:12.066Z,2.75
2022-08-30T21:55:43.688Z,2.50
2022-08-30T21:58:10.895Z,2.63
2022-08-30T22:00:39.227Z,2.92
2022-08-30T22:03:06.120Z,2.90
2022-08-30T22:05:33.168Z,2.03
2022-08-30T22:08:00.046Z,2.50
2022-08-30T22:10:31.145Z,2.70
2022-08-30T22:12:59.931Z,2.58
2022-08-30T22:15:27.006Z,3.13
2022-08-30T22:17:55.341Z,2.30
2022-08-30T22:20:22.186Z,2.63
2022-08-30T22:22:50.923Z,2.60
2022-08-30T22:25:17.926Z,2.25
2022-08-30T22:27:44.780Z,2.30
2022-08-30T22:30:13.364Z,2.70
2022-08-30T22:32:40.948Z,3.00
2022-08-30T22:35:08.243Z,2.30
2022-08-30T22:37:35.261Z,2.92
2022-08-30T22:40:02.316Z,2.30
2022-08-30T22:42:29.433Z,3.05
2022-08-30T22:44:56.481Z,2.63
2022-08-30T22:47:23.414Z,1.90
2022-08-30T22:49:50.285Z,2.67
2022-08-30T22:52:17.136Z,2.63
2022-08-30T22:54:49.554Z,1.95
2022-08-30T22:57:19.398Z,2.53
2022-08-30T22:59:46.344Z,2.20
2022-08-30T23:02:13.296Z,2.33
2022-08-30T23:04:40.241Z,2.60
2022-08-30T23:07:07.084Z,2.30
2022-08-30T23:09:34.022Z,2.20
2022-08-30T23:12:01.374Z,2.10
2022-08-30T23:14:28.310Z,1.90
2022-08-30T23:16:55.897Z,2.33
2022-08-30T23:19:23.689Z,2.40
2022-08-30T23:21:51.040Z,2.67
2022-08-30T23:24:36.359Z,2.30
2022-08-30T23:27:23.114Z,2.50
2022-08-30T23:30:08.687Z,2.05
2022-08-30T23:32:54.653Z,2.33
2022-08-30T23:35:40.716Z,2.47
2022-08-30T23:38:26.081Z,2.33
2022-08-30T23:41:11.813Z,2.38
2022-08-30T23:43:57.222Z,1.85
2022-08-30T23:46:42.588Z,2.00
2022-08-30T23:49:28.272Z,1.98
2022-08-30T23:52:13.953Z,2.05
2022-08-30T23:54:59.405Z,2.15
2022-08-30T23:57:46.022Z,2.40
